Time;durP1;ratioP1;P1;durP2;ratioP2;P2;SDS_P1;SDS_P2;PMS_P1;PMS_P2;Temp;Humidity;BMP_temperature;BMP_pressure;BME280_temperature;BME280_humidity;BME280_pressure;Samples;Min_cycle;Max_cycle;Signal;HPM_P1;HPM_P2
2022/09/17 00:00:25;;;;;;;8.95;1.33;;;13.10;59.90;;;;;;4996049;28;20061;-58
2022/09/17 00:02:54;;;;;;;8.60;1.63;;;13.10;59.90;;;;;;5004955;28;20422;-54
2022/09/17 00:05:23;;;;;;;7.50;1.42;;;13.10;59.90;;;;;;5002499;28;20073;-59
2022/09/17 00:07:51;;;;;;;6.30;1.20;;;13.10;59.80;;;;;;5005281;28;20061;-61
2022/09/17 00:10:22;;;;;;;7.35;1.40;;;13.10;59.90;;;;;;4999914;28;20062;-64
2022/09/17 00:12:49;;;;;;;8.18;1.63;;;13.10;59.90;;;;;;5002475;28;20057;-57
2022/09/17 00:15:17;;;;;;;9.65;1.40;;;13.10;59.90;;;;;;5001304;28;20061;-58
2022/09/17 00:17:44;;;;;;;11.90;1.55;;;13.10;59.90;;;;;;5005093;28;20517;-57
2022/09/17 00:20:11;;;;;;;6.90;1.77;;;13.10;59.90;;;;;;4999142;28;20061;-61
2022/09/17 00:22:39;;;;;;;6.00;1.45;;;13.10;59.90;;;;;;5004030;28;20065;-62
2022/09/17 00:25:08;;;;;;;6.35;1.00;;;13.10;59.90;;;;;;4999911;28;20072;-59
2022/09/17 00:27:36;;;;;;;7.72;1.77;;;13.10;59.80;;;;;;5002639;28;20069;-57
2022/09/17 00:30:05;;;;;;;8.70;1.85;;;13.10;59.80;;;;;;4998546;28;20057;-53
2022/09/17 00:32:32;;;;;;;7.32;1.30;;;13.20;60.50;;;;;;5004512;28;20054;-57
2022/09/17 00:34:59;;;;;;;9.25;1.60;;;13.20;59.80;;;;;;5001869;28;20057;-58
2022/09/17 00:37:26;;;;;;;10.60;1.88;;;13.20;59.90;;;;;;5003071;28;20053;-59
2022/09/17 00:39:53;;;;;;;8.23;1.25;;;13.20;59.90;;;;;;5001666;28;20058;-58
2022/09/17 00:42:22;;;;;;;5.47;1.38;;;13.10;59.90;;;;;;5001114;28;20820;-56
2022/09/17 00:44:52;;;;;;;7.80;1.20;;;13.20;60.00;;;;;;4999877;28;20060;-57
2022/09/17 00:47:26;;;;;;;5.47;1.30;;;13.10;60.10;;;;;;5001798;28;20057;-52
2022/09/17 00:49:59;;;;;;;7.40;1.38;;;13.10;60.30;;;;;;5000389;28;20053;-56
2022/09/17 00:52:30;;;;;;;15.00;1.77;;;13.10;60.60;;;;;;5001644;28;20066;-57
2022/09/17 00:55:04;;;;;;;4.97;1.42;;;13.10;60.80;;;;;;4999344;28;20062;-56
2022/09/17 00:57:31;;;;;;;7.37;2.23;;;13.10;60.90;;;;;;5003100;28;20053;-58
2022/09/17 01:00:00;;;;;;;7.68;1.30;;;13.10;61.00;;;;;;4996435;28;20395;-51
2022/09/17 01:02:27;;;;;;;6.57;1.65;;;13.10;61.00;;;;;;5002316;28;20050;-58
2022/09/17 01:04:55;;;;;;;9.45;1.65;;;13.10;61.10;;;;;;5000882;28;20125;-56
2022/09/17 01:07:42;;;;;;;6.93;1.33;;;13.10;61.20;;;;;;5002345;28;20057;-57
2022/09/17 01:10:23;;;;;;;6.88;1.60;;;13.10;61.30;;;;;;4997696;28;20053;-55
2022/09/17 01:13:02;;;;;;;15.07;2.67;;;13.10;61.30;;;;;;5002950;28;20108;-54
2022/09/17 01:15:38;;;;;;;7.63;1.52;;;13.10;61.40;;;;;;4999009;28;20061;-57
2022/09/17 01:18:21;;;;;;;11.02;1.63;;;13.10;61.20;;;;;;5003706;28;20061;-56
2022/09/17 01:21:22;;;;;;;9.85;1.90;;;13.20;61.20;;;;;;4998068;28;20050;-53
2022/09/17 01:24:21;;;;;;;12.13;2.00;;;13.10;61.20;;;;;;5001314;28;20054;-57
2022/09/17 01:27:12;;;;;;;8.32;1.98;;;13.20;61.30;;;;;;5000816;28;20054;-53
2022/09/17 01:29:59;;;;;;;7.25;1.75;;;13.10;61.20;;;;;;5000799;28;20064;-56
2022/09/17 01:32:33;;;;;;;7.90;2.22;;;13.20;61.30;;;;;;4998279;28;20054;-56
2022/09/17 01:35:05;;;;;;;8.10;1.70;;;13.20;61.30;;;;;;4998354;28;20057;-57
2022/09/17 01:37:36;;;;;;;12.27;2.58;;;13.20;61.40;;;;;;4996694;28;20050;-57
2022/09/17 01:40:07;;;;;;;9.98;1.95;;;13.20;61.90;;;;;;4992983;28;20058;-57
2022/09/17 01:42:41;;;;;;;9.38;1.70;;;13.20;62.10;;;;;;4997669;28;20053;-56
2022/09/17 01:45:15;;;;;;;10.77;2.53;;;13.20;62.30;;;;;;4998997;28;20058;-59
2022/09/17 01:47:48;;;;;;;9.23;1.83;;;13.20;62.40;;;;;;5002890;28;20836;-57
2022/09/17 01:50:19;;;;;;;10.05;1.80;;;13.20;62.50;;;;;;4978160;28;20058;-56
2022/09/17 01:52:51;;;;;;;9.07;2.17;;;13.20;62.60;;;;;;4999679;28;20064;-50
2022/09/17 01:55:19;;;;;;;5.78;1.60;;;13.20;62.50;;;;;;5001774;28;20054;-55
2022/09/17 01:57:50;;;;;;;10.93;1.63;;;13.20;62.60;;;;;;5001601;28;20064;-58
2022/09/17 02:00:19;;;;;;;10.27;2.53;;;13.20;62.80;;;;;;4989962;28;20586;-52
2022/09/17 02:02:51;;;;;;;12.27;2.63;;;13.20;63.00;;;;;;5003512;28;20512;-56
2022/09/17 02:05:23;;;;;;;10.45;2.42;;;13.20;63.20;;;;;;4998978;28;20054;-58
2022/09/17 02:07:54;;;;;;;11.00;2.17;;;13.20;63.30;;;;;;5003097;28;20065;-57
2022/09/17 02:10:25;;;;;;;8.40;2.45;;;13.20;63.40;;;;;;4993674;28;20058;-53
2022/09/17 02:12:59;;;;;;;11.25;2.60;;;13.20;63.70;;;;;;5001516;28;20057;-57
2022/09/17 02:15:31;;;;;;;8.93;2.22;;;13.10;63.70;;;;;;4999816;28;20058;-58
2022/09/17 02:18:05;;;;;;;13.20;2.42;;;13.10;63.70;;;;;;5002331;28;20061;-55
2022/09/17 02:20:40;;;;;;;14.25;2.40;;;13.10;64.00;;;;;;4995250;28;20053;-60
2022/09/17 02:23:12;;;;;;;7.85;2.00;;;13.10;64.10;;;;;;4994461;28;20049;-59
2022/09/17 02:25:47;;;;;;;14.13;2.55;;;13.10;64.30;;;;;;4996576;28;20060;-58
2022/09/17 02:28:17;;;;;;;;;;;13.20;64.60;;;;;;5002809;28;20053;-56
2022/09/17 02:30:44;;;;;;;16.60;2.88;;;13.20;64.70;;;;;;4995359;28;20569;-57
2022/09/17 02:33:15;;;;;;;12.93;2.53;;;13.10;64.60;;;;;;4999819;28;20053;-55
2022/09/17 02:35:43;;;;;;;10.50;2.30;;;13.10;65.00;;;;;;4997409;28;20053;-56
2022/09/17 02:38:11;;;;;;;10.45;1.98;;;13.00;65.30;;;;;;5003017;28;20544;-57
2022/09/17 02:40:46;;;;;;;14.73;3.22;;;13.00;65.50;;;;;;4994793;28;20049;-49
2022/09/17 02:43:20;;;;;;;12.27;2.35;;;12.90;65.90;;;;;;4994633;28;20213;-52
2022/09/17 02:45:58;;;;;;;7.47;2.45;;;12.90;66.20;;;;;;5001705;28;20061;-56
2022/09/17 02:48:51;;;;;;;16.00;2.72;;;12.90;66.50;;;;;;4993298;28;20066;-56
2022/09/17 02:51:28;;;;;;;13.63;2.95;;;12.90;66.90;;;;;;4987042;28;20049;-54
2022/09/17 02:54:02;;;;;;;10.05;2.80;;;12.80;66.80;;;;;;4994303;28;20140;-55
2022/09/17 02:56:34;;;;;;;;;;;12.80;66.90;;;;;;5000059;28;20414;-56
2022/09/17 02:59:12;;;;;;;9.32;2.53;;;12.90;67.00;;;;;;5002301;28;19921;-50
2022/09/17 03:01:43;;;;;;;10.40;2.65;;;12.80;66.80;;;;;;4997014;28;20050;-57
2022/09/17 03:04:15;;;;;;;15.13;2.88;;;12.80;67.10;;;;;;4999849;28;20405;-58
2022/09/17 03:06:45;;;;;;;16.80;3.05;;;12.90;67.20;;;;;;5002794;28;20058;-57
2022/09/17 03:09:13;;;;;;;10.45;2.65;;;12.90;67.20;;;;;;5002578;28;20057;-58
2022/09/17 03:11:41;;;;;;;12.45;2.40;;;12.90;67.10;;;;;;4996968;28;20054;-56
2022/09/17 03:14:08;;;;;;;14.30;2.63;;;12.90;67.10;;;;;;4999955;28;20797;-60
2022/09/17 03:16:35;;;;;;;16.45;2.40;;;12.90;67.00;;;;;;4997289;28;20045;-59
2022/09/17 03:19:02;;;;;;;16.05;2.85;;;12.90;67.20;;;;;;4998366;28;20050;-57
2022/09/17 03:21:31;;;;;;;13.00;2.40;;;12.90;67.10;;;;;;4998561;28;20513;-58
2022/09/17 03:23:59;;;;;;;17.50;2.47;;;12.90;67.10;;;;;;5004604;28;20058;-59
2022/09/17 03:26:26;;;;;;;16.52;2.90;;;13.00;67.20;;;;;;5001224;28;20068;-57
2022/09/17 03:28:53;;;;;;;13.80;2.30;;;13.00;67.10;;;;;;5003190;28;20053;-54
2022/09/17 03:31:20;;;;;;;20.25;2.85;;;13.00;67.00;;;;;;4999604;28;20417;-60
2022/09/17 03:33:49;;;;;;;12.25;1.83;;;13.00;66.90;;;;;;4999327;28;20054;-57
2022/09/17 03:36:16;;;;;;;9.35;2.05;;;13.00;66.70;;;;;;5001699;28;20506;-57
2022/09/17 03:38:44;;;;;;;11.75;2.05;;;13.00;66.70;;;;;;4994661;28;20049;-55
2022/09/17 03:41:12;;;;;;;14.13;2.28;;;13.00;66.60;;;;;;4996123;28;20060;-53
2022/09/17 03:43:39;;;;;;;10.52;2.13;;;13.00;66.60;;;;;;5002299;28;20069;-53
2022/09/17 03:46:06;;;;;;;13.25;2.10;;;13.10;66.50;;;;;;5000492;28;20120;-57
2022/09/17 03:48:35;;;;;;;17.48;2.22;;;13.10;66.50;;;;;;4998939;28;20069;-56
2022/09/17 03:51:03;;;;;;;12.88;2.90;;;13.10;66.60;;;;;;4999339;28;20512;-57
2022/09/17 03:53:31;;;;;;;12.77;2.90;;;13.10;66.60;;;;;;5000378;28;20383;-56
2022/09/17 03:56:01;;;;;;;9.45;2.35;;;13.10;66.50;;;;;;5003698;28;20054;-56
2022/09/17 03:58:29;;;;;;;10.35;2.40;;;13.10;66.50;;;;;;4998270;28;20050;-53
2022/09/17 04:00:56;;;;;;;14.05;2.60;;;13.10;66.40;;;;;;4996058;28;20065;-56
2022/09/17 04:03:25;;;;;;;16.02;2.47;;;13.10;66.50;;;;;;5005454;28;21193;-58
2022/09/17 04:05:52;;;;;;;18.52;2.80;;;13.10;66.60;;;;;;4988798;28;20478;-56
2022/09/17 04:08:20;;;;;;;16.17;2.40;;;13.10;66.50;;;;;;5004380;28;20486;-55
2022/09/17 04:10:48;;;;;;;9.98;2.45;;;13.10;66.60;;;;;;4995870;28;20064;-56
2022/09/17 04:13:17;;;;;;;12.63;2.35;;;13.10;66.50;;;;;;4998163;28;20065;-57
2022/09/17 04:15:45;;;;;;;13.27;2.78;;;13.10;66.60;;;;;;4994161;28;21938;-56
2022/09/17 04:18:13;;;;;;;11.98;2.53;;;13.10;66.60;;;;;;4989894;28;20065;-54
2022/09/17 04:20:40;;;;;;;11.40;2.30;;;13.10;66.70;;;;;;4991639;28;20058;-58
2022/09/17 04:23:09;;;;;;;14.05;2.70;;;13.10;66.60;;;;;;5000780;28;20395;-58
2022/09/17 04:25:37;;;;;;;13.15;2.22;;;13.10;66.60;;;;;;5002957;28;20061;-55
2022/09/17 04:28:04;;;;;;;11.75;2.33;;;13.10;66.70;;;;;;4993747;28;20054;-57
2022/09/17 04:30:32;;;;;;;11.55;1.90;;;13.10;66.60;;;;;;4996964;28;20069;-59
2022/09/17 04:32:59;;;;;;;18.98;2.53;;;13.10;66.70;;;;;;5000592;28;20053;-57
2022/09/17 04:35:27;;;;;;;9.38;1.92;;;13.10;66.70;;;;;;5002077;28;20421;-58
2022/09/17 04:37:54;;;;;;;13.35;2.17;;;13.10;66.70;;;;;;4997429;28;20497;-58
2022/09/17 04:40:22;;;;;;;21.70;2.90;;;13.10;66.70;;;;;;4995897;28;20062;-56
2022/09/17 04:42:52;;;;;;;9.88;2.40;;;13.10;66.60;;;;;;4997397;28;20065;-57
2022/09/17 04:45:19;;;;;;;9.20;2.55;;;13.10;66.60;;;;;;5001901;28;20050;-58
2022/09/17 04:47:49;;;;;;;18.17;2.95;;;13.10;66.50;;;;;;5004805;28;20115;-59
2022/09/17 04:50:17;;;;;;;14.25;3.38;;;13.10;66.50;;;;;;4991550;28;20065;-58
2022/09/17 04:52:45;;;;;;;11.88;2.63;;;13.10;66.50;;;;;;4994183;28;20060;-59
2022/09/17 04:55:13;;;;;;;14.57;2.70;;;13.10;66.30;;;;;;5002349;28;20054;-58
2022/09/17 04:57:46;;;;;;;12.48;2.45;;;13.10;66.30;;;;;;5003032;28;20053;-54
2022/09/17 05:00:16;;;;;;;11.87;2.20;;;13.10;66.20;;;;;;4994249;28;20147;-55
2022/09/17 05:02:45;;;;;;;16.98;2.22;;;13.10;66.10;;;;;;5000085;28;20042;-53
2022/09/17 05:05:15;;;;;;;11.20;2.00;;;13.10;66.00;;;;;;4996415;28;20598;-58
2022/09/17 05:07:42;;;;;;;14.27;2.28;;;13.10;66.10;;;;;;5002563;28;20049;-59
2022/09/17 05:10:10;;;;;;;12.65;1.92;;;13.10;66.00;;;;;;4991505;28;20050;-55
2022/09/17 05:12:37;;;;;;;16.90;3.08;;;13.10;66.00;;;;;;4998621;28;20057;-57
2022/09/17 05:15:06;;;;;;;12.80;2.42;;;13.10;65.90;;;;;;4994644;28;20414;-58
2022/09/17 05:17:33;;;;;;;19.00;2.30;;;13.20;66.00;;;;;;4995278;28;20050;-55
2022/09/17 05:20:00;;;;;;;15.05;2.10;;;13.10;65.90;;;;;;4975416;28;20442;-54
2022/09/17 05:22:29;;;;;;;18.73;2.45;;;13.20;66.00;;;;;;4983790;28;20054;-61
2022/09/17 05:24:56;;;;;;;9.35;2.20;;;13.10;65.90;;;;;;4979482;28;20418;-55
2022/09/17 05:27:23;;;;;;;12.95;2.90;;;13.10;65.90;;;;;;4974613;28;20057;-57
2022/09/17 05:29:50;;;;;;;17.70;2.55;;;13.10;66.80;;;;;;4976556;28;20058;-57
2022/09/17 05:32:17;;;;;;;12.68;2.40;;;13.20;66.20;;;;;;4978979;28;20054;-58
2022/09/17 05:34:45;;;;;;;11.68;2.22;;;13.20;66.20;;;;;;4981635;28;20058;-59
2022/09/17 05:37:12;;;;;;;11.35;2.47;;;13.20;66.20;;;;;;4973249;28;20073;-57
2022/09/17 05:39:41;;;;;;;14.57;2.13;;;13.20;66.10;;;;;;4974844;28;20066;-56
2022/09/17 05:42:08;;;;;;;20.77;2.88;;;13.20;66.10;;;;;;4974807;28;20062;-57
2022/09/17 05:44:35;;;;;;;12.27;2.20;;;13.20;66.00;;;;;;4978584;28;20054;-58
2022/09/17 05:47:03;;;;;;;11.35;2.10;;;13.20;66.00;;;;;;4971979;28;20057;-57
2022/09/17 05:49:30;;;;;;;17.38;2.58;;;13.30;66.00;;;;;;4981603;28;20083;-56
2022/09/17 05:51:57;;;;;;;14.98;2.28;;;13.20;65.80;;;;;;4973770;28;20061;-57
2022/09/17 05:54:24;;;;;;;13.93;2.13;;;13.20;65.80;;;;;;4982118;28;20062;-57
2022/09/17 05:56:54;;;;;;;10.13;1.70;;;13.20;65.80;;;;;;4974287;28;20050;-57
2022/09/17 05:59:21;;;;;;;11.48;1.90;;;13.20;65.90;;;;;;4974575;28;20057;-57
2022/09/17 06:01:49;;;;;;;13.57;1.80;;;13.20;65.90;;;;;;4962833;28;20061;-55
2022/09/17 06:04:17;;;;;;;10.50;1.65;;;13.20;65.80;;;;;;4973008;28;20059;-58
2022/09/17 06:06:45;;;;;;;8.45;1.80;;;13.20;65.80;;;;;;4975036;28;20059;-57
2022/09/17 06:09:12;;;;;;;11.38;2.47;;;13.20;65.70;;;;;;4981157;28;20058;-57
2022/09/17 06:11:39;;;;;;;10.10;1.88;;;13.20;65.70;;;;;;4970491;28;20061;-55
2022/09/17 06:14:08;;;;;;;11.45;1.92;;;13.20;65.70;;;;;;4979203;28;20050;-57
2022/09/17 06:16:36;;;;;;;13.63;2.20;;;13.20;65.70;;;;;;4978209;28;20065;-57
2022/09/17 06:19:03;;;;;;;12.75;2.00;;;13.20;65.70;;;;;;4977541;28;21855;-60
2022/09/17 06:21:31;;;;;;;14.30;2.40;;;13.20;65.70;;;;;;4995036;28;20054;-55
2022/09/17 06:24:00;;;;;;;6.80;2.15;;;13.20;65.70;;;;;;4997566;28;20053;-56
2022/09/17 06:26:27;;;;;;;19.23;2.20;;;13.20;65.70;;;;;;4996943;28;20050;-58
2022/09/17 06:28:54;;;;;;;14.65;1.75;;;13.20;65.70;;;;;;4992441;28;20050;-57
2022/09/17 06:31:24;;;;;;;13.75;2.45;;;13.10;65.70;;;;;;4995231;28;20049;-55
2022/09/17 06:33:51;;;;;;;15.10;2.13;;;13.10;65.80;;;;;;4991811;28;20060;-56
2022/09/17 06:36:20;;;;;;;14.90;3.00;;;13.20;66.00;;;;;;4993857;28;20050;-57
2022/09/17 06:38:49;;;;;;;8.98;2.20;;;13.20;66.20;;;;;;4997032;28;20061;-56
2022/09/17 06:41:22;;;;;;;10.88;1.73;;;13.20;66.30;;;;;;4996005;28;20076;-54
2022/09/17 06:43:52;;;;;;;11.00;1.50;;;13.20;66.40;;;;;;4998241;28;20054;-56
2022/09/17 06:46:20;;;;;;;10.50;2.00;;;13.20;66.50;;;;;;5000146;28;20069;-53
2022/09/17 06:48:48;;;;;;;11.73;2.10;;;13.20;66.50;;;;;;4999720;28;20049;-54
2022/09/17 06:51:15;;;;;;;21.15;2.58;;;13.30;66.60;;;;;;4990363;28;20053;-58
2022/09/17 06:53:42;;;;;;;12.57;2.03;;;13.30;66.40;;;;;;4996345;28;20402;-58
2022/09/17 06:56:10;;;;;;;12.13;1.80;;;13.30;66.50;;;;;;4997282;28;20512;-58
2022/09/17 06:58:40;;;;;;;14.20;2.33;;;13.40;66.70;;;;;;4998809;28;20050;-58
2022/09/17 07:01:07;;;;;;;13.02;1.80;;;13.40;66.60;;;;;;4998529;28;20050;-60
2022/09/17 07:03:35;;;;;;;13.10;1.77;;;13.40;66.90;;;;;;5002968;28;20049;-57
2022/09/17 07:06:03;;;;;;;13.10;2.17;;;13.50;66.60;;;;;;4999368;28;20060;-56
2022/09/17 07:08:33;;;;;;;15.18;2.15;;;13.50;66.70;;;;;;4997114;28;20046;-56
2022/09/17 07:11:00;;;;;;;11.45;2.03;;;13.60;66.60;;;;;;5000189;28;20061;-59
2022/09/17 07:13:27;;;;;;;8.77;2.55;;;13.60;66.50;;;;;;5001602;28;20065;-57
2022/09/17 07:15:57;;;;;;;8.77;1.70;;;13.70;66.60;;;;;;5004600;28;20065;-54
2022/09/17 07:18:25;;;;;;;18.38;2.47;;;13.80;66.40;;;;;;5004456;28;20062;-58
2022/09/17 07:20:54;;;;;;;16.13;2.30;;;13.80;65.90;;;;;;5003754;28;20061;-55
2022/09/17 07:23:24;;;;;;;10.15;1.75;;;13.90;65.70;;;;;;5004574;28;20054;-58
2022/09/17 07:25:52;;;;;;;17.30;1.88;;;14.00;64.90;;;;;;5005674;28;20058;-55
2022/09/17 07:28:19;;;;;;;16.63;2.10;;;14.00;64.40;;;;;;5001156;28;20072;-56
2022/09/17 07:30:47;;;;;;;13.30;1.75;;;14.10;64.20;;;;;;5001905;28;20056;-57
2022/09/17 07:33:15;;;;;;;16.25;2.15;;;14.10;63.60;;;;;;5003573;28;20049;-56
2022/09/17 07:35:42;;;;;;;19.10;2.65;;;14.10;63.70;;;;;;5000681;28;20059;-56
2022/09/17 07:38:09;;;;;;;12.27;2.08;;;14.10;63.20;;;;;;5001716;28;20054;-56
2022/09/17 07:40:38;;;;;;;15.93;2.47;;;14.10;63.10;;;;;;5000145;28;20050;-56
2022/09/17 07:43:05;;;;;;;17.60;2.20;;;14.20;62.60;;;;;;4994348;28;20058;-53
2022/09/17 07:45:33;;;;;;;13.38;2.38;;;14.20;62.40;;;;;;4993620;28;20060;-55
2022/09/17 07:48:00;;;;;;;13.75;2.63;;;14.10;61.60;;;;;;5004093;28;20050;-55
2022/09/17 07:50:27;;;;;;;9.82;2.08;;;14.10;61.50;;;;;;4996439;28;20049;-56
2022/09/17 07:52:54;;;;;;;15.38;2.10;;;14.10;61.50;;;;;;5002533;28;20057;-57
2022/09/17 07:55:22;;;;;;;11.80;2.10;;;14.10;61.80;;;;;;5002461;28;20046;-57
2022/09/17 07:57:54;;;;;;;11.93;2.85;;;14.10;61.50;;;;;;5003275;28;20529;-60
2022/09/17 08:00:21;;;;;;;13.13;2.10;;;14.10;61.00;;;;;;4991727;28;20417;-58
2022/09/17 08:02:54;;;;;;;20.73;7.45;;;14.10;60.50;;;;;;5004091;28;20069;-55
2022/09/17 08:05:21;;;;;;;14.77;2.90;;;14.20;61.20;;;;;;5004552;28;20481;-58
2022/09/17 08:07:50;;;;;;;11.45;2.88;;;14.20;61.20;;;;;;5000119;28;20058;-56
2022/09/17 08:10:20;;;;;;;13.88;2.10;;;14.20;60.80;;;;;;4995360;28;20251;-53
2022/09/17 08:12:47;;;;;;;15.30;1.75;;;14.20;60.50;;;;;;4991849;28;20489;-58
2022/09/17 08:15:16;;;;;;;18.15;3.00;;;14.20;59.90;;;;;;4993881;28;20050;-59
2022/09/17 08:17:44;;;;;;;16.58;3.30;;;14.20;60.10;;;;;;4998531;28;20058;-55
2022/09/17 08:20:12;;;;;;;8.27;1.88;;;14.20;59.90;;;;;;4990923;28;20398;-56
2022/09/17 08:22:39;;;;;;;14.73;3.55;;;14.20;59.60;;;;;;5001206;28;20054;-58
2022/09/17 08:25:08;;;;;;;9.13;2.80;;;14.20;59.90;;;;;;4999560;28;20433;-57
2022/09/17 08:27:37;;;;;;;14.82;1.80;;;14.20;60.00;;;;;;4999950;28;20053;-57
2022/09/17 08:30:06;;;;;;;16.13;2.58;;;14.20;59.80;;;;;;4997327;28;20057;-53
2022/09/17 08:32:34;;;;;;;12.27;2.45;;;14.20;60.40;;;;;;4993098;28;20421;-60
2022/09/17 08:35:01;;;;;;;13.18;2.33;;;14.30;60.10;;;;;;4990868;28;20057;-58
2022/09/17 08:37:29;;;;;;;11.25;2.40;;;14.30;60.30;;;;;;5001843;28;20066;-57
2022/09/17 08:39:57;;;;;;;16.05;3.67;;;14.30;60.40;;;;;;5000582;28;20134;-55
2022/09/17 08:42:32;;;;;;;16.92;2.28;;;14.40;60.60;;;;;;4995368;28;20438;-60
2022/09/17 08:45:03;;;;;;;17.02;3.72;;;14.40;59.30;;;;;;4996532;28;20049;-57
2022/09/17 08:47:36;;;;;;;13.27;2.45;;;14.40;59.30;;;;;;5000155;28;20050;-52
2022/09/17 08:50:06;;;;;;;10.98;3.00;;;14.50;59.50;;;;;;5000769;28;20042;-54
2022/09/17 08:53:12;;;;;;;15.00;2.25;;;14.50;59.60;;;;;;5002602;28;20060;-57
2022/09/17 08:55:43;;;;;;;13.65;2.40;;;14.60;59.20;;;;;;5002363;28;20057;-59
2022/09/17 08:58:28;;;;;;;11.32;2.75;;;14.60;58.90;;;;;;5004058;28;20050;-60
2022/09/17 09:01:03;;;;;;;11.27;2.10;;;14.60;57.90;;;;;;4997942;28;20046;-57
2022/09/17 09:03:48;;;;;;;9.68;2.22;;;14.70;58.30;;;;;;5001170;28;20077;-57
2022/09/17 09:06:16;;;;;;;15.80;2.75;;;14.70;58.40;;;;;;5002375;28;20405;-57
2022/09/17 09:08:49;;;;;;;11.57;2.08;;;14.80;58.50;;;;;;4990049;28;20050;-57
2022/09/17 09:11:21;;;;;;;11.63;2.30;;;14.80;58.40;;;;;;4998916;28;20069;-56
2022/09/17 09:13:53;;;;;;;20.23;3.20;;;14.80;57.20;;;;;;5003828;28;20073;-56
2022/09/17 09:16:24;;;;;;;16.48;2.53;;;14.90;57.50;;;;;;4999453;28;20054;-58
2022/09/17 09:18:55;;;;;;;8.25;1.83;;;14.90;56.70;;;;;;5001377;28;20518;-60
2022/09/17 09:21:27;;;;;;;14.10;2.38;;;15.00;57.00;;;;;;4997693;28;20061;-59
2022/09/17 09:23:57;;;;;;;11.57;2.17;;;15.10;57.20;;;;;;5003698;28;20057;-56
2022/09/17 09:26:39;;;;;;;13.90;4.30;;;15.20;56.60;;;;;;4998012;28;20057;-55
2022/09/17 09:29:18;;;;;;;13.20;2.25;;;15.20;55.80;;;;;;5000537;28;20050;-57
2022/09/17 09:32:16;;;;;;;20.65;4.78;;;15.20;55.60;;;;;;4998889;28;20053;-57
2022/09/17 09:34:47;;;;;;;12.38;2.42;;;15.20;55.30;;;;;;4999509;28;20056;-58
2022/09/17 09:37:19;;;;;;;8.60;1.98;;;15.30;55.60;;;;;;4999989;28;20141;-57
2022/09/17 09:39:50;;;;;;;11.25;1.70;;;15.20;55.30;;;;;;5001487;28;20057;-57
2022/09/17 09:42:26;;;;;;;10.32;2.22;;;15.20;54.40;;;;;;4994042;28;20056;-57
2022/09/17 09:44:56;;;;;;;23.55;8.90;;;15.20;54.30;;;;;;4995436;28;20060;-58
2022/09/17 09:47:53;;;;;;;20.83;6.72;;;15.20;54.70;;;;;;5000511;28;20062;-57
2022/09/17 09:50:40;;;;;;;31.77;15.52;;;15.20;55.20;;;;;;4985087;28;20050;-59
2022/09/17 09:53:15;;;;;;;26.33;5.30;;;15.30;53.80;;;;;;4998821;28;20406;-59
2022/09/17 09:56:11;;;;;;;18.02;6.97;;;15.40;54.20;;;;;;4994802;28;20411;-57
2022/09/17 09:58:40;;;;;;;19.15;3.78;;;15.40;52.90;;;;;;5000272;28;20049;-59
2022/09/17 10:01:13;;;;;;;13.05;2.72;;;15.50;52.80;;;;;;4991918;28;20069;-51
2022/09/17 10:03:44;;;;;;;15.65;2.00;;;15.50;53.10;;;;;;4998838;28;20054;-58
2022/09/17 10:06:14;;;;;;;7.25;1.60;;;15.60;52.60;;;;;;4990882;28;20069;-48
2022/09/17 10:09:10;;;;;;;7.45;2.00;;;15.60;52.40;;;;;;4984770;28;20050;-61
2022/09/17 10:11:38;;;;;;;9.67;1.83;;;15.60;52.80;;;;;;4971873;28;20054;-57
2022/09/17 10:14:22;;;;;;;16.08;2.42;;;15.70;52.50;;;;;;4996716;28;20057;-56
2022/09/17 10:16:49;;;;;;;11.13;1.70;;;15.70;52.40;;;;;;4993096;28;20061;-55
2022/09/17 10:19:23;;;;;;;8.63;2.67;;;15.70;52.40;;;;;;4993701;28;20061;-59
2022/09/17 10:21:52;;;;;;;11.82;1.80;;;15.70;52.70;;;;;;4994005;28;20062;-60
2022/09/17 10:24:27;;;;;;;7.13;1.80;;;15.80;52.60;;;;;;4995967;28;20058;-56
2022/09/17 10:27:01;;;;;;;10.80;2.10;;;15.80;52.60;;;;;;4999600;28;20068;-56
2022/09/17 10:29:28;;;;;;;7.55;1.25;;;15.80;53.20;;;;;;4998925;28;20494;-57
2022/09/17 10:31:57;;;;;;;7.18;1.70;;;15.70;52.80;;;;;;4997084;28;20058;-56
2022/09/17 10:34:26;;;;;;;7.45;2.20;;;15.60;53.10;;;;;;5000536;28;20050;-55
2022/09/17 10:36:56;;;;;;;13.40;2.42;;;15.60;54.20;;;;;;4995565;28;20061;-57
2022/09/17 10:39:43;;;;;;;6.97;1.48;;;15.60;54.90;;;;;;4997786;28;20057;-57
2022/09/17 10:42:15;;;;;;;9.52;1.92;;;15.50;55.50;;;;;;4991023;28;20092;-54
2022/09/17 10:44:52;;;;;;;9.10;1.65;;;15.40;55.10;;;;;;4992369;28;20545;-57
2022/09/17 10:47:27;;;;;;;7.22;1.55;;;15.40;55.70;;;;;;5000700;28;20064;-57
2022/09/17 10:50:00;;;;;;;7.72;1.00;;;15.40;55.10;;;;;;4999689;28;20497;-59
2022/09/17 10:52:31;;;;;;;5.13;1.00;;;15.40;54.70;;;;;;5000004;28;20058;-58
2022/09/17 10:55:15;;;;;;;6.20;1.45;;;15.40;55.00;;;;;;4999977;28;20054;-53
2022/09/17 10:58:13;;;;;;;5.55;0.93;;;15.40;54.40;;;;;;5000400;28;20501;-58
2022/09/17 11:00:55;;;;;;;7.88;1.33;;;15.40;53.90;;;;;;4998129;28;20061;-60
2022/09/17 11:03:58;;;;;;;8.02;1.13;;;15.50;53.60;;;;;;5000428;28;20410;-57
2022/09/17 11:06:49;;;;;;;14.50;2.33;;;15.50;54.00;;;;;;4989785;28;20053;-56
2022/09/17 11:09:29;;;;;;;7.55;1.33;;;15.50;53.20;;;;;;4986719;28;20058;-58
2022/09/17 11:12:23;;;;;;;8.25;1.50;;;15.50;53.30;;;;;;4979407;28;20182;-56
2022/09/17 11:15:00;;;;;;;9.70;1.38;;;15.60;52.90;;;;;;4982666;28;20069;-61
2022/09/17 11:17:42;;;;;;;6.35;0.85;;;15.70;52.40;;;;;;5002670;28;20050;-57
2022/09/17 11:20:29;;;;;;;14.10;1.20;;;15.70;52.20;;;;;;5002907;28;20061;-56
2022/09/17 11:23:13;;;;;;;4.32;1.10;;;15.80;51.30;;;;;;5002243;28;20058;-57
2022/09/17 11:25:47;;;;;;;3.22;1.00;;;15.90;52.00;;;;;;5000002;28;20428;-58
2022/09/17 11:28:30;;;;;;;8.20;1.50;;;16.00;52.50;;;;;;4998994;28;20057;-58
2022/09/17 11:31:09;;;;;;;10.80;1.90;;;16.10;51.00;;;;;;4995955;28;20057;-61
2022/09/17 11:34:09;;;;;;;11.60;2.13;;;16.30;52.50;;;;;;4999977;28;20058;-56
2022/09/17 11:36:45;;;;;;;8.07;1.20;;;16.40;52.30;;;;;;4999128;28;20134;-52
2022/09/17 11:39:19;;;;;;;12.27;1.20;;;16.50;51.50;;;;;;4997314;28;20065;-56
2022/09/17 11:41:52;;;;;;;6.95;1.25;;;16.50;51.70;;;;;;4997361;28;20494;-58
2022/09/17 11:44:25;;;;;;;5.30;1.10;;;16.60;50.40;;;;;;5004592;28;20069;-56
2022/09/17 11:46:57;;;;;;;4.27;1.00;;;16.60;50.10;;;;;;5001431;28;20064;-56
2022/09/17 11:49:31;;;;;;;5.80;1.38;;;16.70;51.40;;;;;;5001781;28;20058;-57
2022/09/17 11:52:04;;;;;;;7.78;1.30;;;16.70;50.60;;;;;;5001264;28;20054;-60
2022/09/17 11:54:37;;;;;;;5.00;1.25;;;16.80;49.60;;;;;;5006518;28;20395;-59
2022/09/17 11:57:13;;;;;;;6.65;1.10;;;16.70;49.70;;;;;;5003919;28;20062;-57
2022/09/17 11:59:45;;;;;;;4.80;0.80;;;16.70;49.90;;;;;;5001866;28;20066;-57
2022/09/17 12:02:20;;;;;;;5.60;0.90;;;16.70;49.80;;;;;;4993338;28;20069;-56
2022/09/17 12:04:56;;;;;;;4.63;1.23;;;16.70;49.00;;;;;;5006092;28;20057;-58
2022/09/17 12:07:34;;;;;;;5.00;1.00;;;16.70;48.30;;;;;;4998388;28;20058;-59
2022/09/17 12:10:19;;;;;;;6.07;0.75;;;16.70;47.90;;;;;;4998626;28;20049;-59
2022/09/17 12:12:50;;;;;;;;;;;16.70;48.20;;;;;;4989227;28;20058;-52
2022/09/17 12:15:22;;;;;;;6.00;0.93;;;16.70;48.70;;;;;;4990459;28;20385;-59
2022/09/17 12:17:56;;;;;;;3.55;0.60;;;16.70;48.60;;;;;;4992285;28;20053;-60
2022/09/17 12:20:29;;;;;;;6.25;0.82;;;16.80;48.90;;;;;;4987638;28;20057;-58
2022/09/17 12:22:58;;;;;;;6.32;1.10;;;16.80;48.80;;;;;;4990638;28;20060;-61
2022/09/17 12:25:29;;;;;;;13.27;2.00;;;16.80;47.90;;;;;;5002308;28;20049;-54
2022/09/17 12:28:02;;;;;;;8.98;0.85;;;16.90;47.40;;;;;;4999744;28;20062;-53
2022/09/17 12:30:35;;;;;;;12.10;0.88;;;16.80;47.60;;;;;;4996504;28;20414;-55
2022/09/17 12:33:24;;;;;;;3.03;0.88;;;16.60;49.90;;;;;;5002486;28;20050;-58
2022/09/17 12:36:18;;;;;;;1.35;0.30;;;16.30;50.80;;;;;;4984233;28;20083;-56
2022/09/17 12:39:06;;;;;;;7.25;0.80;;;16.10;52.00;;;;;;5001794;28;20046;-56
2022/09/17 12:41:42;;;;;;;3.35;0.63;;;15.90;52.80;;;;;;4988994;28;20417;-53
2022/09/17 12:44:34;;;;;;;7.03;1.30;;;15.60;53.80;;;;;;4981143;28;20062;-53
2022/09/17 12:47:19;;;;;;;8.10;0.68;;;15.40;54.40;;;;;;5002084;28;20057;-53
2022/09/17 12:50:07;;;;;;;2.80;0.70;;;15.30;55.80;;;;;;5003300;28;20061;-56
2022/09/17 12:52:47;;;;;;;3.20;0.43;;;15.10;57.20;;;;;;5009011;28;20498;-53
2022/09/17 12:55:28;;;;;;;5.85;0.90;;;15.00;58.10;;;;;;5011001;28;20073;-56
2022/09/17 12:58:04;;;;;;;5.95;0.82;;;15.00;58.00;;;;;;5002859;28;20047;-54
2022/09/17 13:00:40;;;;;;;6.80;1.35;;;15.00;58.10;;;;;;5000119;28;20050;-51
2022/09/17 13:03:18;;;;;;;3.63;0.93;;;15.00;58.40;;;;;;4995729;28;20046;-54
2022/09/17 13:06:16;;;;;;;7.18;1.05;;;15.00;58.40;;;;;;5005896;28;20426;-52